sensor_id;sensor_type;location;lat;lon;timestamp;pressure;altitude;pressure_sealevel;temperature;humidity
61757;BME280;57225;61.460;24.060;2022-12-18T00:01:03;100447.88;;;-1.16;100.00
61757;BME280;57225;61.460;24.060;2022-12-18T00:03:50;100454.50;;;-1.08;100.00
61757;BME280;57225;61.460;24.060;2022-12-18T00:06:35;100449.50;;;-1.06;100.00
61757;BME280;57225;61.460;24.060;2022-12-18T00:09:19;100453.84;;;-1.05;100.00
61757;BME280;57225;61.460;24.060;2022-12-18T00:12:05;100457.38;;;-1.05;100.00
61757;BME280;57225;61.460;24.060;2022-12-18T00:14:49;100449.03;;;-1.00;100.00
61757;BME280;57225;61.460;24.060;2022-12-18T00:17:33;100449.84;;;-0.99;100.00
61757;BME280;57225;61.460;24.060;2022-12-18T00:20:17;100451.50;;;-0.90;100.00
61757;BME280;57225;61.460;24.060;2022-12-18T00:23:07;100445.66;;;-0.97;100.00
61757;BME280;57225;61.460;24.060;2022-12-18T00:25:51;100454.53;;;-0.91;100.00
61757;BME280;57225;61.460;24.060;2022-12-18T00:28:35;100455.00;;;-0.98;100.00
61757;BME280;57225;61.460;24.060;2022-12-18T00:31:20;100450.69;;;-0.90;100.00
61757;BME280;57225;61.460;24.060;2022-12-18T00:34:04;100450.03;;;-0.87;100.00
61757;BME280;57225;61.460;24.060;2022-12-18T00:36:48;100448.75;;;-0.90;100.00
61757;BME280;57225;61.460;24.060;2022-12-18T00:39:33;100450.38;;;-0.89;100.00
61757;BME280;57225;61.460;24.060;2022-12-18T00:42:17;100446.81;;;-0.89;100.00
61757;BME280;57225;61.460;24.060;2022-12-18T00:45:25;100448.41;;;-0.88;100.00
61757;BME280;57225;61.460;24.060;2022-12-18T00:48:12;100456.31;;;-0.87;100.00
61757;BME280;57225;61.460;24.060;2022-12-18T00:50:56;100451.03;;;-0.83;100.00
61757;BME280;57225;61.460;24.060;2022-12-18T00:53:40;100447.47;;;-0.75;100.00
61757;BME280;57225;61.460;24.060;2022-12-18T00:56:24;100445.38;;;-0.78;100.00
61757;BME280;57225;61.460;24.060;2022-12-18T00:59:08;100436.88;;;-0.76;100.00
61757;BME280;57225;61.460;24.060;2022-12-18T01:01:52;100439.25;;;-0.75;100.00
61757;BME280;57225;61.460;24.060;2022-12-18T01:04:36;100437.50;;;-0.79;100.00
61757;BME280;57225;61.460;24.060;2022-12-18T01:07:21;100436.19;;;-0.82;100.00
61757;BME280;57225;61.460;24.060;2022-12-18T01:10:06;100433.94;;;-0.80;100.00
61757;BME280;57225;61.460;24.060;2022-12-18T01:12:51;100444.41;;;-0.82;100.00
61757;BME280;57225;61.460;24.060;2022-12-18T01:15:35;100439.41;;;-0.80;100.00
61757;BME280;57225;61.460;24.060;2022-12-18T01:18:20;100438.78;;;-0.77;100.00
61757;BME280;57225;61.460;24.060;2022-12-18T01:21:07;100433.94;;;-0.80;100.00
61757;BME280;57225;61.460;24.060;2022-12-18T01:23:53;100434.94;;;-0.76;100.00
61757;BME280;57225;61.460;24.060;2022-12-18T01:26:37;100421.06;;;-0.79;100.00
61757;BME280;57225;61.460;24.060;2022-12-18T01:29:21;100420.44;;;-0.76;100.00
61757;BME280;57225;61.460;24.060;2022-12-18T01:32:06;100429.47;;;-0.76;100.00
61757;BME280;57225;61.460;24.060;2022-12-18T01:34:50;100422.50;;;-0.82;100.00
61757;BME280;57225;61.460;24.060;2022-12-18T01:37:34;100421.88;;;-0.79;100.00
61757;BME280;57225;61.460;24.060;2022-12-18T01:40:18;100427.03;;;-0.77;100.00
61757;BME280;57225;61.460;24.060;2022-12-18T01:43:02;100423.66;;;-0.74;100.00
61757;BME280;57225;61.460;24.060;2022-12-18T01:45:47;100421.72;;;-0.74;100.00
61757;BME280;57225;61.460;24.060;2022-12-18T01:48:31;100426.38;;;-0.74;100.00
61757;BME280;57225;61.460;24.060;2022-12-18T01:51:15;100425.56;;;-0.75;100.00
61757;BME280;57225;61.460;24.060;2022-12-18T01:53:59;100429.47;;;-0.76;100.00
61757;BME280;57225;61.460;24.060;2022-12-18T01:56:43;100428.31;;;-0.75;100.00
61757;BME280;57225;61.460;24.060;2022-12-18T01:59:27;100420.28;;;-0.71;100.00
61757;BME280;57225;61.460;24.060;2022-12-18T02:02:12;100429.78;;;-0.69;100.00
61757;BME280;57225;61.460;24.060;2022-12-18T02:04:56;100428.66;;;-0.76;100.00
61757;BME280;57225;61.460;24.060;2022-12-18T02:07:47;100429.13;;;-0.74;100.00
61757;BME280;57225;61.460;24.060;2022-12-18T02:10:52;100439.75;;;-0.73;100.00
61757;BME280;57225;61.460;24.060;2022-12-18T02:13:46;100437.97;;;-0.69;100.00
61757;BME280;57225;61.460;24.060;2022-12-18T02:16:37;100439.28;;;-0.66;100.00
61757;BME280;57225;61.460;24.060;2022-12-18T02:25:51;100437.53;;;-0.54;100.00
61757;BME280;57225;61.460;24.060;2022-12-18T02:28:59;100435.25;;;-0.43;100.00
61757;BME280;57225;61.460;24.060;2022-12-18T02:31:54;100444.75;;;-0.49;100.00
61757;BME280;57225;61.460;24.060;2022-12-18T02:34:39;100435.75;;;-0.41;100.00
61757;BME280;57225;61.460;24.060;2022-12-18T02:37:23;100445.28;;;-0.38;100.00
61757;BME280;57225;61.460;24.060;2022-12-18T02:40:09;100437.53;;;-0.36;100.00
61757;BME280;57225;61.460;24.060;2022-12-18T02:42:54;100435.13;;;-0.38;100.00
61757;BME280;57225;61.460;24.060;2022-12-18T02:45:48;100439.78;;;-0.38;100.00
61757;BME280;57225;61.460;24.060;2022-12-18T02:48:34;100446.41;;;-0.39;100.00
61757;BME280;57225;61.460;24.060;2022-12-18T02:51:44;100440.25;;;-0.36;100.00
61757;BME280;57225;61.460;24.060;2022-12-18T02:54:26;100443.50;;;-0.34;100.00
61757;BME280;57225;61.460;24.060;2022-12-18T02:57:14;100451.84;;;-0.31;100.00
61757;BME280;57225;61.460;24.060;2022-12-18T03:00:08;100437.69;;;-0.42;100.00
61757;BME280;57225;61.460;24.060;2022-12-18T03:02:56;100443.81;;;-0.45;100.00
61757;BME280;57225;61.460;24.060;2022-12-18T03:05:45;100444.28;;;-0.43;100.00
61757;BME280;57225;61.460;24.060;2022-12-18T03:08:38;100438.66;;;-0.46;100.00
61757;BME280;57225;61.460;24.060;2022-12-18T03:11:23;100436.56;;;-0.49;100.00
61757;BME280;57225;61.460;24.060;2022-12-18T03:14:29;100446.69;;;-0.50;100.00
61757;BME280;57225;61.460;24.060;2022-12-18T03:17:15;100440.59;;;-0.47;100.00
61757;BME280;57225;61.460;24.060;2022-12-18T03:20:09;100434.47;;;-0.52;100.00
61757;BME280;57225;61.460;24.060;2022-12-18T03:22:58;100432.84;;;-0.53;100.00
61757;BME280;57225;61.460;24.060;2022-12-18T03:25:44;100438.16;;;-0.57;100.00
61757;BME280;57225;61.460;24.060;2022-12-18T03:28:29;100443.50;;;-0.52;100.00
61757;BME280;57225;61.460;24.060;2022-12-18T03:31:14;100434.28;;;-0.56;100.00
61757;BME280;57225;61.460;24.060;2022-12-18T03:34:02;100433.50;;;-0.56;100.00
61757;BME280;57225;61.460;24.060;2022-12-18T03:36:48;100420.94;;;-0.57;100.00
61757;BME280;57225;61.460;24.060;2022-12-18T03:39:33;100428.50;;;-0.63;100.00
61757;BME280;57225;61.460;24.060;2022-12-18T03:42:36;100418.69;;;-0.64;100.00
61757;BME280;57225;61.460;24.060;2022-12-18T03:48:24;100435.13;;;-0.64;100.00
61757;BME280;57225;61.460;24.060;2022-12-18T03:51:17;100429.47;;;-0.59;100.00
61757;BME280;57225;61.460;24.060;2022-12-18T03:54:03;100400.31;;;-0.72;100.00
61757;BME280;57225;61.460;24.060;2022-12-18T03:56:49;100436.22;;;-0.56;100.00
61757;BME280;57225;61.460;24.060;2022-12-18T03:59:35;100428.66;;;-0.59;100.00
61757;BME280;57225;61.460;24.060;2022-12-18T04:02:22;100409.16;;;-0.75;100.00
61757;BME280;57225;61.460;24.060;2022-12-18T04:05:07;100427.03;;;-0.69;100.00
61757;BME280;57225;61.460;24.060;2022-12-18T04:07:52;100438.31;;;-0.62;100.00
61757;BME280;57225;61.460;24.060;2022-12-18T04:10:37;100439.28;;;-0.66;100.00
61757;BME280;57225;61.460;24.060;2022-12-18T04:13:27;100438.97;;;-0.65;100.00
61757;BME280;57225;61.460;24.060;2022-12-18T04:16:11;100428.97;;;-0.69;100.00
61757;BME280;57225;61.460;24.060;2022-12-18T04:18:55;100432.38;;;-0.64;100.00
61757;BME280;57225;61.460;24.060;2022-12-18T04:21:40;100430.25;;;-0.67;100.00
61757;BME280;57225;61.460;24.060;2022-12-18T04:24:23;100439.59;;;-0.68;100.00
61757;BME280;57225;61.460;24.060;2022-12-18T04:27:08;100433.66;;;-0.70;100.00
61757;BME280;57225;61.460;24.060;2022-12-18T04:29:52;100425.91;;;-0.68;100.00
61757;BME280;57225;61.460;24.060;2022-12-18T04:32:36;100424.00;;;-0.76;100.00
61757;BME280;57225;61.460;24.060;2022-12-18T04:35:20;100435.25;;;-0.69;100.00
61757;BME280;57225;61.460;24.060;2022-12-18T04:38:05;100427.69;;;-0.72;100.00
61757;BME280;57225;61.460;24.060;2022-12-18T04:40:50;100425.44;;;-0.61;100.00
61757;BME280;57225;61.460;24.060;2022-12-18T04:43:34;100420.44;;;-0.68;100.00
61757;BME280;57225;61.460;24.060;2022-12-18T04:46:18;100424.63;;;-0.62;100.00
61757;BME280;57225;61.460;24.060;2022-12-18T04:49:02;100425.28;;;-0.65;100.00
61757;BME280;57225;61.460;24.060;2022-12-18T04:51:46;100430.56;;;-0.68;100.00
61757;BME280;57225;61.460;24.060;2022-12-18T04:54:30;100420.44;;;-0.68;100.00
61757;BME280;57225;61.460;24.060;2022-12-18T04:57:14;100421.44;;;-0.64;100.00
61757;BME280;57225;61.460;24.060;2022-12-18T04:59:58;100428.66;;;-0.68;100.00
61757;BME280;57225;61.460;24.060;2022-12-18T05:02:42;100418.84;;;-0.60;100.00
61757;BME280;57225;61.460;24.060;2022-12-18T05:05:26;100422.22;;;-0.63;100.00
61757;BME280;57225;61.460;24.060;2022-12-18T05:08:10;100419.81;;;-0.65;100.00
61757;BME280;57225;61.460;24.060;2022-12-18T05:11:05;100419.81;;;-0.65;100.00
61757;BME280;57225;61.460;24.060;2022-12-18T05:13:50;100415.63;;;-0.71;100.00
61757;BME280;57225;61.460;24.060;2022-12-18T05:16:34;100414.34;;;-0.65;100.00
61757;BME280;57225;61.460;24.060;2022-12-18T05:19:18;100415.47;;;-0.57;100.00
61757;BME280;57225;61.460;24.060;2022-12-18T05:22:02;100410.31;;;-0.59;100.00
61757;BME280;57225;61.460;24.060;2022-12-18T05:24:46;100413.88;;;-0.58;100.00
61757;BME280;57225;61.460;24.060;2022-12-18T05:27:32;100410.94;;;-0.62;100.00
61757;BME280;57225;61.460;24.060;2022-12-18T05:30:16;100411.59;;;-0.56;100.00
61757;BME280;57225;61.460;24.060;2022-12-18T05:33:00;100414.66;;;-0.58;100.00
61757;BME280;57225;61.460;24.060;2022-12-18T05:35:44;100415.94;;;-0.64;100.00
61757;BME280;57225;61.460;24.060;2022-12-18T05:38:29;100416.75;;;-0.63;100.00
61757;BME280;57225;61.460;24.060;2022-12-18T05:41:13;100421.44;;;-0.64;100.00
61757;BME280;57225;61.460;24.060;2022-12-18T05:43:57;100408.06;;;-0.65;100.00
61757;BME280;57225;61.460;24.060;2022-12-18T05:46:42;100424.31;;;-0.60;100.00
61757;BME280;57225;61.460;24.060;2022-12-18T05:49:27;100420.16;;;-0.58;100.00
61757;BME280;57225;61.460;24.060;2022-12-18T05:52:12;100428.16;;;-0.61;100.00
61757;BME280;57225;61.460;24.060;2022-12-18T05:54:56;100426.44;;;-0.57;100.00
61757;BME280;57225;61.460;24.060;2022-12-18T05:57:42;100422.06;;;-0.67;100.00
61757;BME280;57225;61.460;24.060;2022-12-18T06:00:26;100421.44;;;-0.64;100.00
61757;BME280;57225;61.460;24.060;2022-12-18T06:03:10;100420.44;;;-0.68;100.00
61757;BME280;57225;61.460;24.060;2022-12-18T06:05:55;100420.94;;;-0.66;100.00
61757;BME280;57225;61.460;24.060;2022-12-18T06:08:39;100426.09;;;-0.64;100.00
61757;BME280;57225;61.460;24.060;2022-12-18T06:11:24;100422.38;;;-0.60;100.00
61757;BME280;57225;61.460;24.060;2022-12-18T06:14:09;100427.19;;;-0.57;100.00
61757;BME280;57225;61.460;24.060;2022-12-18T06:16:53;100425.75;;;-0.63;100.00
61757;BME280;57225;61.460;24.060;2022-12-18T06:19:37;100420.47;;;-0.59;100.00
61757;BME280;57225;61.460;24.060;2022-12-18T06:22:21;100407.09;;;-0.61;100.00
61757;BME280;57225;61.460;24.060;2022-12-18T06:25:05;100405.66;;;-0.58;100.00
61757;BME280;57225;61.460;24.060;2022-12-18T06:27:50;100414.81;;;-0.63;100.00
61757;BME280;57225;61.460;24.060;2022-12-18T06:30:34;100407.59;;;-0.59;100.00
61757;BME280;57225;61.460;24.060;2022-12-18T06:33:18;100409.81;;;-0.61;100.00
61757;BME280;57225;61.460;24.060;2022-12-18T06:36:03;100409.19;;;-0.58;100.00
61757;BME280;57225;61.460;24.060;2022-12-18T06:38:48;100409.00;;;-0.61;100.00
61757;BME280;57225;61.460;24.060;2022-12-18T06:41:32;100413.88;;;-0.58;100.00
61757;BME280;57225;61.460;24.060;2022-12-18T06:44:17;100403.38;;;-0.65;100.00
61757;BME280;57225;61.460;24.060;2022-12-18T06:47:01;100405.63;;;-0.67;100.00
61757;BME280;57225;61.460;24.060;2022-12-18T06:49:45;100417.53;;;-0.63;100.00
61757;BME280;57225;61.460;24.060;2022-12-18T06:52:31;100415.78;;;-0.59;100.00
61757;BME280;57225;61.460;24.060;2022-12-18T06:55:15;100416.09;;;-0.60;100.00
61757;BME280;57225;61.460;24.060;2022-12-18T06:57:59;100425.91;;;-0.68;100.00
61757;BME280;57225;61.460;24.060;2022-12-18T07:00:43;100407.56;;;-0.67;100.00
61757;BME280;57225;61.460;24.060;2022-12-18T07:03:27;100429.47;;;-0.59;100.00
61757;BME280;57225;61.460;24.060;2022-12-18T07:06:15;100422.38;;;-0.60;100.00
61757;BME280;57225;61.460;24.060;2022-12-18T07:09:00;100431.22;;;-0.63;100.00
61757;BME280;57225;61.460;24.060;2022-12-18T07:11:44;100420.28;;;-0.54;100.00
61757;BME280;57225;61.460;24.060;2022-12-18T07:14:28;100426.09;;;-0.56;100.00
61757;BME280;57225;61.460;24.060;2022-12-18T07:17:13;100427.19;;;-0.57;100.00
61757;BME280;57225;61.460;24.060;2022-12-18T07:19:57;100413.69;;;-0.53;100.00
61757;BME280;57225;61.460;24.060;2022-12-18T07:22:41;100421.91;;;-0.53;100.00
61757;BME280;57225;61.460;24.060;2022-12-18T07:25:26;100422.06;;;-0.58;100.00
61757;BME280;57225;61.460;24.060;2022-12-18T07:28:10;100423.34;;;-0.56;100.00
61757;BME280;57225;61.460;24.060;2022-12-18T07:30:56;100428.00;;;-0.56;100.00
61757;BME280;57225;61.460;24.060;2022-12-18T07:33:40;100425.44;;;-0.53;100.00
61757;BME280;57225;61.460;24.060;2022-12-18T07:36:24;100427.06;;;-0.52;100.00
61757;BME280;57225;61.460;24.060;2022-12-18T07:39:10;100426.25;;;-0.52;100.00
61757;BME280;57225;61.460;24.060;2022-12-18T07:41:54;100429.63;;;-0.55;100.00
61757;BME280;57225;61.460;24.060;2022-12-18T07:45:00;100426.09;;;-0.47;100.00
61757;BME280;57225;61.460;24.060;2022-12-18T07:47:45;100427.72;;;-0.46;100.00
61757;BME280;57225;61.460;24.060;2022-12-18T07:50:29;100436.09;;;-0.51;100.00
61757;BME280;57225;61.460;24.060;2022-12-18T07:53:14;100429.81;;;-0.52;100.00
61757;BME280;57225;61.460;24.060;2022-12-18T07:55:59;100432.84;;;-0.53;100.00
61757;BME280;57225;61.460;24.060;2022-12-18T07:58:44;100432.19;;;-0.50;100.00
61757;BME280;57225;61.460;24.060;2022-12-18T08:01:28;100432.06;;;-0.54;100.00
61757;BME280;57225;61.460;24.060;2022-12-18T08:04:13;100428.19;;;-0.53;100.00
61757;BME280;57225;61.460;24.060;2022-12-18T08:06:57;100426.56;;;-0.54;100.00
61757;BME280;57225;61.460;24.060;2022-12-18T08:09:41;100427.06;;;-0.52;100.00
61757;BME280;57225;61.460;24.060;2022-12-18T08:12:25;100424.66;;;-0.45;100.00
61757;BME280;57225;61.460;24.060;2022-12-18T08:15:09;100420.78;;;-0.44;100.00
61757;BME280;57225;61.460;24.060;2022-12-18T08:17:58;100417.56;;;-0.46;100.00
61757;BME280;57225;61.460;24.060;2022-12-18T08:20:42;100419.97;;;-0.44;100.00
61757;BME280;57225;61.460;24.060;2022-12-18T08:23:26;100422.72;;;-0.35;100.00
61757;BME280;57225;61.460;24.060;2022-12-18T08:26:11;100414.81;;;-0.46;100.00
61757;BME280;57225;61.460;24.060;2022-12-18T08:28:55;100413.72;;;-0.45;100.00
61757;BME280;57225;61.460;24.060;2022-12-18T08:31:40;100421.44;;;-0.47;100.00
61757;BME280;57225;61.460;24.060;2022-12-18T08:34:24;100410.47;;;-0.47;100.00
61757;BME280;57225;61.460;24.060;2022-12-18T08:37:08;100404.19;;;-0.47;100.00
61757;BME280;57225;61.460;24.060;2022-12-18T08:39:52;100410.00;;;-0.40;100.00
61757;BME280;57225;61.460;24.060;2022-12-18T08:42:35;100413.22;;;-0.47;100.00
61757;BME280;57225;61.460;24.060;2022-12-18T08:45:39;100405.16;;;-0.43;100.00
61757;BME280;57225;61.460;24.060;2022-12-18T08:48:23;100409.66;;;-0.47;100.00
61757;BME280;57225;61.460;24.060;2022-12-18T08:51:07;100405.97;;;-0.43;100.00
61757;BME280;57225;61.460;24.060;2022-12-18T08:53:53;100403.72;;;-0.41;100.00
61757;BME280;57225;61.460;24.060;2022-12-18T08:56:37;100397.56;;;-0.37;100.00
61757;BME280;57225;61.460;24.060;2022-12-18T08:59:21;100398.88;;;-0.35;100.00
61757;BME280;57225;61.460;24.060;2022-12-18T09:02:08;100399.84;;;-0.39;100.00
61757;BME280;57225;61.460;24.060;2022-12-18T09:04:52;100408.06;;;-0.39;100.00
61757;BME280;57225;61.460;24.060;2022-12-18T09:07:36;100400.81;;;-0.35;100.00
61757;BME280;57225;61.460;24.060;2022-12-18T09:10:20;100408.53;;;-0.37;100.00
61757;BME280;57225;61.460;24.060;2022-12-18T09:13:04;100399.22;;;-0.45;100.00
61757;BME280;57225;61.460;24.060;2022-12-18T09:15:49;100388.91;;;-0.39;100.00
61757;BME280;57225;61.460;24.060;2022-12-18T09:18:33;100390.34;;;-0.33;100.00
61757;BME280;57225;61.460;24.060;2022-12-18T09:21:19;100391.31;;;-0.38;100.00
61757;BME280;57225;61.460;24.060;2022-12-18T09:24:04;100392.09;;;-0.37;100.00
61757;BME280;57225;61.460;24.060;2022-12-18T09:26:48;100394.38;;;-0.39;100.00
61757;BME280;57225;61.460;24.060;2022-12-18T09:29:32;100397.09;;;-0.39;100.00
61757;BME280;57225;61.460;24.060;2022-12-18T09:32:16;100387.91;;;-0.44;100.00
61757;BME280;57225;61.460;24.060;2022-12-18T09:35:00;100396.63;;;-0.42;100.00
61757;BME280;57225;61.460;24.060;2022-12-18T09:37:45;100389.38;;;-0.46;100.00
61757;BME280;57225;61.460;24.060;2022-12-18T09:40:32;100376.31;;;-0.49;100.00
61757;BME280;57225;61.460;24.060;2022-12-18T09:46:36;100375.53;;;-0.41;100.00
61757;BME280;57225;61.460;24.060;2022-12-18T09:49:23;100370.84;;;-0.41;100.00
61757;BME280;57225;61.460;24.060;2022-12-18T09:52:11;100369.56;;;-0.43;100.00
61757;BME280;57225;61.460;24.060;2022-12-18T09:55:09;100372.63;;;-0.45;100.00
61757;BME280;57225;61.460;24.060;2022-12-18T09:57:56;100360.06;;;-0.46;100.00
61757;BME280;57225;61.460;24.060;2022-12-18T10:00:43;100363.94;;;-0.47;100.00
61757;BME280;57225;61.460;24.060;2022-12-18T10:03:27;100361.34;;;-0.43;100.00
61757;BME280;57225;61.460;24.060;2022-12-18T10:06:13;100355.56;;;-0.42;100.00
61757;BME280;57225;61.460;24.060;2022-12-18T10:09:19;100350.75;;;-0.45;100.00
61757;BME280;57225;61.460;24.060;2022-12-18T10:15:25;100353.47;;;-0.45;100.00
61757;BME280;57225;61.460;24.060;2022-12-18T10:18:22;100331.56;;;-0.45;100.00
61757;BME280;57225;61.460;24.060;2022-12-18T10:21:11;100331.41;;;-0.48;100.00
61757;BME280;57225;61.460;24.060;2022-12-18T10:24:00;100329.66;;;-0.53;100.00
61757;BME280;57225;61.460;24.060;2022-12-18T10:26:46;100320.13;;;-0.55;100.00
61757;BME280;57225;61.460;24.060;2022-12-18T10:29:30;100330.28;;;-0.56;100.00
61757;BME280;57225;61.460;24.060;2022-12-18T10:32:33;100330.44;;;-0.52;100.00
61757;BME280;57225;61.460;24.060;2022-12-18T10:35:18;100318.88;;;-0.58;100.00
61757;BME280;57225;61.460;24.060;2022-12-18T10:41:06;100317.25;;;-0.59;100.00
61757;BME280;57225;61.460;24.060;2022-12-18T10:44:11;100317.25;;;-0.59;100.00
61757;BME280;57225;61.460;24.060;2022-12-18T10:47:02;100312.72;;;-0.55;100.00
61757;BME280;57225;61.460;24.060;2022-12-18T10:49:48;100314.84;;;-0.52;100.00
61757;BME280;57225;61.460;24.060;2022-12-18T10:52:33;100308.72;;;-0.57;100.00
61757;BME280;57225;61.460;24.060;2022-12-18T10:55:18;100305.81;;;-0.61;100.00
61757;BME280;57225;61.460;24.060;2022-12-18T11:01:07;100305.81;;;-0.61;100.00
61757;BME280;57225;61.460;24.060;2022-12-18T11:06:51;100292.78;;;-0.64;100.00
61757;BME280;57225;61.460;24.060;2022-12-18T11:09:37;100296.16;;;-0.58;100.00
61757;BME280;57225;61.460;24.060;2022-12-18T11:12:21;100292.31;;;-0.66;100.00
61757;BME280;57225;61.460;24.060;2022-12-18T11:15:13;100289.25;;;-0.64;100.00
61757;BME280;57225;61.460;24.060;2022-12-18T11:17:58;100294.38;;;-0.63;100.00
61757;BME280;57225;61.460;24.060;2022-12-18T11:20:44;100289.88;;;-0.59;100.00
61757;BME280;57225;61.460;24.060;2022-12-18T11:23:34;100287.16;;;-0.59;100.00
61757;BME280;57225;61.460;24.060;2022-12-18T11:26:19;100280.06;;;-0.60;100.00
61757;BME280;57225;61.460;24.060;2022-12-18T11:29:08;100270.25;;;-0.61;100.00
61757;BME280;57225;61.460;24.060;2022-12-18T11:31:57;100265.44;;;-0.64;100.00
61757;BME280;57225;61.460;24.060;2022-12-18T11:35:01;100261.72;;;-0.59;100.00
61757;BME280;57225;61.460;24.060;2022-12-18T11:38:33;100257.97;;;-0.55;100.00
61757;BME280;57225;61.460;24.060;2022-12-18T11:43:58;100250.09;;;-0.48;100.00
61757;BME280;57225;61.460;24.060;2022-12-18T11:49:52;100236.53;;;-0.44;100.00
61757;BME280;57225;61.460;24.060;2022-12-18T11:52:37;100242.19;;;-0.41;100.00
61757;BME280;57225;61.460;24.060;2022-12-18T11:58:16;100227.81;;;-0.37;100.00
61757;BME280;57225;61.460;24.060;2022-12-18T12:09:46;100219.78;;;-0.43;100.00
61757;BME280;57225;61.460;24.060;2022-12-18T12:16:02;100213.66;;;-0.39;100.00
61757;BME280;57225;61.460;24.060;2022-12-18T12:19:06;100211.25;;;-0.41;100.00
61757;BME280;57225;61.460;24.060;2022-12-18T12:22:14;100202.56;;;-0.43;100.00
61757;BME280;57225;61.460;24.060;2022-12-18T12:39:46;100189.50;;;-0.37;100.00
61757;BME280;57225;61.460;24.060;2022-12-18T12:42:35;100186.59;;;-0.32;100.00
61757;BME280;57225;61.460;24.060;2022-12-18T12:45:49;100183.66;;;-0.27;100.00
61757;BME280;57225;61.460;24.060;2022-12-18T12:48:36;100182.25;;;-0.33;100.00
61757;BME280;57225;61.460;24.060;2022-12-18T12:51:25;100174.34;;;-0.35;100.00
61757;BME280;57225;61.460;24.060;2022-12-18T12:54:15;100169.00;;;-0.31;100.00
61757;BME280;57225;61.460;24.060;2022-12-18T12:57:06;100175.44;;;-0.27;100.00
61757;BME280;57225;61.460;24.060;2022-12-18T13:05:48;100168.16;;;-0.23;100.00
61757;BME280;57225;61.460;24.060;2022-12-18T13:08:51;100159.63;;;-0.22;100.00
61757;BME280;57225;61.460;24.060;2022-12-18T13:14:39;100146.06;;;-0.18;100.00
61757;BME280;57225;61.460;24.060;2022-12-18T13:17:26;100139.47;;;-0.17;100.00
61757;BME280;57225;61.460;24.060;2022-12-18T13:20:13;100134.94;;;-0.13;100.00
61757;BME280;57225;61.460;24.060;2022-12-18T13:22:58;100145.22;;;-0.10;100.00
61757;BME280;57225;61.460;24.060;2022-12-18T13:25:42;100146.88;;;-0.18;100.00
61757;BME280;57225;61.460;24.060;2022-12-18T13:34:17;100139.09;;;-0.07;100.00
61757;BME280;57225;61.460;24.060;2022-12-18T13:38:02;100131.16;;;0.00;100.00
61757;BME280;57225;61.460;24.060;2022-12-18T13:46:17;100122.94;;;0.00;100.00
61757;BME280;57225;61.460;24.060;2022-12-18T13:49:44;100121.34;;;-0.01;100.00
61757;BME280;57225;61.460;24.060;2022-12-18T13:52:17;100109.41;;;-0.05;100.00
61757;BME280;57225;61.460;24.060;2022-12-18T13:55:02;100094.47;;;-0.08;100.00
61757;BME280;57225;61.460;24.060;2022-12-18T13:57:48;100101.03;;;0.00;100.00
61757;BME280;57225;61.460;24.060;2022-12-18T14:00:32;100105.00;;;0.03;100.00
61757;BME280;57225;61.460;24.060;2022-12-18T14:03:21;100107.34;;;-0.08;100.00
61757;BME280;57225;61.460;24.060;2022-12-18T14:06:06;100104.81;;;-0.13;100.00
61757;BME280;57225;61.460;24.060;2022-12-18T14:08:52;100109.94;;;-0.12;100.00
61757;BME280;57225;61.460;24.060;2022-12-18T14:11:36;100106.50;;;0.00;100.00
61757;BME280;57225;61.460;24.060;2022-12-18T14:14:21;100097.00;;;-0.03;100.00
61757;BME280;57225;61.460;24.060;2022-12-18T14:17:08;100097.94;;;0.02;100.00
61757;BME280;57225;61.460;24.060;2022-12-18T14:19:52;100092.97;;;-0.05;100.00
61757;BME280;57225;61.460;24.060;2022-12-18T14:22:36;100090.19;;;0.04;100.00
61757;BME280;57225;61.460;24.060;2022-12-18T14:25:25;100083.91;;;0.03;100.00
61757;BME280;57225;61.460;24.060;2022-12-18T14:30:54;100077.28;;;0.04;100.00
61757;BME280;57225;61.460;24.060;2022-12-18T14:33:38;100075.69;;;0.03;100.00
61757;BME280;57225;61.460;24.060;2022-12-18T14:36:26;100071.34;;;0.02;100.00
61757;BME280;57225;61.460;24.060;2022-12-18T14:39:11;100080.69;;;0.01;100.00
61757;BME280;57225;61.460;24.060;2022-12-18T14:42:00;100074.28;;;-0.03;100.00
61757;BME280;57225;61.460;24.060;2022-12-18T14:44:44;100069.72;;;0.01;100.00
61757;BME280;57225;61.460;24.060;2022-12-18T14:47:28;100058.44;;;0.03;100.00
61757;BME280;57225;61.460;24.060;2022-12-18T14:50:13;100058.50;;;-0.06;100.00
61757;BME280;57225;61.460;24.060;2022-12-18T14:52:57;100056.91;;;-0.07;100.00
61757;BME280;57225;61.460;24.060;2022-12-18T14:55:44;100050.56;;;0.01;100.00
61757;BME280;57225;61.460;24.060;2022-12-18T14:58:29;100046.88;;;-0.03;100.00
61757;BME280;57225;61.460;24.060;2022-12-18T15:01:24;100050.44;;;-0.03;100.00
61757;BME280;57225;61.460;24.060;2022-12-18T15:04:28;100041.41;;;-0.03;100.00
61757;BME280;57225;61.460;24.060;2022-12-18T15:07:20;100041.34;;;0.06;100.00
61757;BME280;57225;61.460;24.060;2022-12-18T15:10:10;100042.59;;;0.08;100.00
61757;BME280;57225;61.460;24.060;2022-12-18T15:15:48;100019.28;;;0.02;100.00
61757;BME280;57225;61.460;24.060;2022-12-18T15:18:32;100017.50;;;0.06;100.00
61757;BME280;57225;61.460;24.060;2022-12-18T15:21:18;100017.22;;;-0.01;100.00
61757;BME280;57225;61.460;24.060;2022-12-18T15:24:02;100012.69;;;0.03;100.00
61757;BME280;57225;61.460;24.060;2022-12-18T15:26:46;100006.06;;;0.04;100.00
61757;BME280;57225;61.460;24.060;2022-12-18T15:29:31;100000.44;;;0.00;100.00
61757;BME280;57225;61.460;24.060;2022-12-18T15:32:18;99992.09;;;-0.03;100.00
61757;BME280;57225;61.460;24.060;2022-12-18T15:35:19;99998.50;;;0.01;100.00
61757;BME280;57225;61.460;24.060;2022-12-18T15:38:04;100002.19;;;0.05;100.00